Time;durP1;ratioP1;P1;durP2;ratioP2;P2;SDS_P1;SDS_P2;PMS_P1;PMS_P2;Temp;Humidity;BMP_temperature;BMP_pressure;BME280_temperature;BME280_humidity;BME280_pressure;Samples;Min_cycle;Max_cycle;Signal;HPM_P1;HPM_P2
2023/06/24 00:01:26;;;;;;;3.08;2.78;;;17.20;99.90;;;;;;5005931;28;20035;-80
2023/06/24 00:03:53;;;;;;;2.92;2.63;;;17.10;99.90;;;;;;5006554;28;20557;-80
2023/06/24 00:06:19;;;;;;;3.83;3.47;;;17.20;99.90;;;;;;5005353;28;20030;-79
2023/06/24 00:08:46;;;;;;;3.33;2.28;;;17.30;99.90;;;;;;5004577;28;20022;-80
2023/06/24 00:11:13;;;;;;;2.75;2.55;;;17.20;99.90;;;;;;5005828;28;20388;-79
2023/06/24 00:13:39;;;;;;;2.53;2.22;;;17.30;99.90;;;;;;5005841;28;20030;-81
2023/06/24 00:16:06;;;;;;;3.30;2.70;;;17.40;99.90;;;;;;4999928;28;20122;-80
2023/06/24 00:18:33;;;;;;;2.65;1.83;;;17.40;99.90;;;;;;5002906;28;21946;-81
2023/06/24 00:20:58;;;;;;;3.58;3.17;;;17.30;99.90;;;;;;5005917;28;20053;-84
2023/06/24 00:23:24;;;;;;;3.40;2.75;;;17.30;99.90;;;;;;5034169;28;20034;-80
2023/06/24 00:25:54;;;;;;;3.33;3.03;;;17.20;99.90;;;;;;5035555;28;20061;-81
2023/06/24 00:28:21;;;;;;;3.70;2.90;;;17.20;99.90;;;;;;5005869;28;20055;-84
2023/06/24 00:30:47;;;;;;;2.90;2.47;;;17.10;99.90;;;;;;5002385;28;20049;-78
2023/06/24 00:33:13;;;;;;;3.42;2.50;;;17.20;99.90;;;;;;5020149;28;20038;-79
2023/06/24 00:35:43;;;;;;;4.10;2.35;;;17.20;99.90;;;;;;5000083;28;20048;-82
2023/06/24 00:38:09;;;;;;;4.50;2.92;;;17.20;99.90;;;;;;4999027;28;20096;-82
2023/06/24 00:40:35;;;;;;;3.40;2.75;;;17.20;99.90;;;;;;5016677;28;20030;-81
2023/06/24 00:43:02;;;;;;;3.35;3.05;;;17.20;99.90;;;;;;5006457;28;20501;-81
2023/06/24 00:45:29;;;;;;;3.28;2.90;;;17.20;99.90;;;;;;5006233;28;20482;-82
2023/06/24 00:47:56;;;;;;;3.13;2.63;;;17.10;99.90;;;;;;5004429;28;20390;-80
2023/06/24 00:50:22;;;;;;;4.13;2.50;;;17.00;99.90;;;;;;5006056;28;20112;-80
2023/06/24 00:52:49;;;;;;;3.63;2.72;;;17.00;99.90;;;;;;5004340;28;20080;-79
2023/06/24 00:55:17;;;;;;;3.00;2.53;;;17.00;99.90;;;;;;5004960;28;20434;-81
2023/06/24 00:57:45;;;;;;;4.28;2.72;;;17.00;99.90;;;;;;5005209;28;20026;-81
2023/06/24 01:00:14;;;;;;;3.88;2.92;;;16.90;99.90;;;;;;5009592;28;20026;-80
2023/06/24 01:02:42;;;;;;;3.42;2.97;;;17.00;99.90;;;;;;5005134;28;20041;-80
2023/06/24 01:05:10;;;;;;;4.20;2.90;;;17.00;99.90;;;;;;5005765;28;20038;-81
2023/06/24 01:07:37;;;;;;;3.75;3.28;;;17.00;99.90;;;;;;5009644;28;20030;-80
2023/06/24 01:10:07;;;;;;;3.08;2.70;;;16.90;99.90;;;;;;5008643;28;20034;-80
2023/06/24 01:12:33;;;;;;;;;;;16.90;99.90;;;;;;5019589;28;20129;-82
2023/06/24 01:14:59;;;;;;;4.03;2.67;;;17.00;99.90;;;;;;5038025;28;20489;-78
2023/06/24 01:17:37;;;;;;;3.33;2.90;;;17.00;99.90;;;;;;5009441;28;20029;-82
2023/06/24 01:20:19;;;;;;;3.78;3.15;;;17.00;99.90;;;;;;4993411;28;20642;-81
2023/06/24 01:22:46;;;;;;;2.55;2.33;;;17.10;99.90;;;;;;4979519;28;20039;-79
2023/06/24 01:25:33;;;;;;;4.53;2.78;;;17.10;99.90;;;;;;4970336;28;20030;-78
2023/06/24 01:28:37;;;;;;;4.22;3.72;;;17.10;99.90;;;;;;4972478;28;20383;-80
2023/06/24 01:31:34;;;;;;;3.55;2.90;;;17.10;99.90;;;;;;4969860;28;20077;-80
2023/06/24 01:34:08;;;;;;;3.97;3.25;;;17.00;99.90;;;;;;4986513;28;20480;-80
2023/06/24 01:36:38;;;;;;;2.95;2.65;;;17.00;99.90;;;;;;4952524;28;20031;-79
2023/06/24 01:39:08;;;;;;;4.10;3.42;;;17.00;99.90;;;;;;4971712;28;20030;-83
2023/06/24 01:41:43;;;;;;;4.20;3.40;;;17.00;99.90;;;;;;4970743;28;20042;-80
2023/06/24 01:44:12;;;;;;;3.85;3.45;;;17.00;99.90;;;;;;5001450;28;20050;-80
2023/06/24 01:46:40;;;;;;;3.78;3.35;;;17.00;99.90;;;;;;4967843;28;20108;-81
2023/06/24 01:49:11;;;;;;;4.97;4.05;;;16.90;99.90;;;;;;4971137;28;20026;-80
2023/06/24 01:51:40;;;;;;;3.95;3.28;;;17.00;99.90;;;;;;4948519;28;20125;-84
2023/06/24 01:54:10;;;;;;;4.38;3.58;;;16.90;99.90;;;;;;4969979;28;20059;-82
2023/06/24 01:56:38;;;;;;;3.95;3.53;;;16.90;99.90;;;;;;5002881;28;20034;-81
2023/06/24 01:59:05;;;;;;;4.40;4.00;;;16.80;99.90;;;;;;4968660;28;20045;-84
2023/06/24 02:01:37;;;;;;;3.88;3.47;;;16.70;99.90;;;;;;4970795;28;20031;-83
2023/06/24 02:04:04;;;;;;;4.70;3.97;;;16.60;99.90;;;;;;4969770;28;20051;-82
2023/06/24 02:06:31;;;;;;;3.85;3.45;;;16.60;99.90;;;;;;4976509;28;20043;-82
2023/06/24 02:09:00;;;;;;;3.55;3.25;;;16.70;99.90;;;;;;4969100;28;20451;-80
2023/06/24 02:11:28;;;;;;;4.05;3.65;;;16.60;99.90;;;;;;4967283;28;20035;-80
2023/06/24 02:13:56;;;;;;;4.37;4.07;;;16.60;99.90;;;;;;4969260;28;20031;-80
2023/06/24 02:16:23;;;;;;;5.00;3.60;;;16.50;99.90;;;;;;4984674;28;20118;-81
2023/06/24 02:18:50;;;;;;;4.22;3.88;;;16.50;99.90;;;;;;4986142;28;20037;-85
2023/06/24 02:21:19;;;;;;;4.68;3.92;;;16.40;99.90;;;;;;4986670;28;20165;-82
2023/06/24 02:23:46;;;;;;;3.78;3.42;;;16.50;99.90;;;;;;5006736;28;20075;-83
2023/06/24 02:26:13;;;;;;;4.53;3.92;;;16.50;99.90;;;;;;4988814;28;20172;-83
2023/06/24 02:28:40;;;;;;;8.55;7.70;;;16.50;99.90;;;;;;5037463;28;20505;-84
2023/06/24 02:31:08;;;;;;;7.30;6.43;;;16.20;99.90;;;;;;4988958;28;20030;-82
2023/06/24 02:33:34;;;;;;;10.35;7.75;;;16.30;99.90;;;;;;5006937;28;20026;-81
2023/06/24 02:36:00;;;;;;;6.55;5.95;;;16.30;99.90;;;;;;5007191;28;20037;-81
2023/06/24 02:38:26;;;;;;;5.25;4.75;;;16.30;99.90;;;;;;5006844;28;20022;-81
2023/06/24 02:40:52;;;;;;;5.40;4.90;;;16.40;99.90;;;;;;5006337;28;20070;-80
2023/06/24 02:43:18;;;;;;;6.75;4.82;;;16.30;99.90;;;;;;4986429;28;20030;-80
2023/06/24 02:45:47;;;;;;;5.55;4.45;;;16.30;99.90;;;;;;4989811;28;20040;-80
2023/06/24 02:48:14;;;;;;;4.97;4.47;;;16.40;99.90;;;;;;5000647;28;20236;-80
2023/06/24 02:50:43;;;;;;;4.35;3.65;;;16.20;99.90;;;;;;5006065;28;20022;-79
2023/06/24 02:53:11;;;;;;;4.20;3.80;;;16.30;99.90;;;;;;4987594;28;20110;-81
2023/06/24 02:55:38;;;;;;;4.13;3.50;;;16.30;99.90;;;;;;5006449;28;20449;-82
2023/06/24 02:58:07;;;;;;;4.50;4.07;;;16.20;99.90;;;;;;5006356;28;20022;-81
2023/06/24 03:00:37;;;;;;;4.82;3.67;;;16.20;99.90;;;;;;5003081;28;20121;-82
2023/06/24 03:03:06;;;;;;;4.72;4.20;;;16.20;99.90;;;;;;5018528;28;20088;-84
2023/06/24 03:05:35;;;;;;;6.38;4.50;;;16.20;99.90;;;;;;5020470;28;20450;-84
2023/06/24 03:08:05;;;;;;;5.30;3.90;;;16.10;99.90;;;;;;4986495;28;20033;-82
2023/06/24 03:10:32;;;;;;;5.03;4.10;;;16.10;99.90;;;;;;5005436;28;20022;-81
2023/06/24 03:12:58;;;;;;;4.28;3.88;;;16.00;99.90;;;;;;5035530;28;20029;-83
2023/06/24 03:15:32;;;;;;;5.55;4.18;;;16.10;99.90;;;;;;5022722;28;20064;-84
2023/06/24 03:17:58;;;;;;;4.32;3.63;;;16.10;99.90;;;;;;5022559;28;20034;-85
2023/06/24 03:20:24;;;;;;;5.60;4.50;;;16.10;99.90;;;;;;5006717;28;20023;-83
2023/06/24 03:22:52;;;;;;;7.40;4.43;;;16.00;99.90;;;;;;4988985;28;20128;-84
2023/06/24 03:25:18;;;;;;;4.72;4.22;;;16.00;99.90;;;;;;5004688;28;20022;-83
2023/06/24 03:27:46;;;;;;;4.35;3.95;;;16.00;99.90;;;;;;4988645;28;20433;-84
2023/06/24 03:30:14;;;;;;;4.80;4.38;;;16.00;99.90;;;;;;5002985;28;20027;-83
2023/06/24 03:32:40;;;;;;;5.63;5.03;;;16.00;99.90;;;;;;5007689;28;20356;-85
2023/06/24 03:35:07;;;;;;;5.60;5.10;;;16.00;99.90;;;;;;5001593;28;20018;-80
2023/06/24 03:37:32;;;;;;;5.40;4.70;;;15.90;99.90;;;;;;5035029;28;20467;-82
2023/06/24 03:39:58;;;;;;;5.32;4.72;;;15.90;99.90;;;;;;5003002;28;20030;-82
2023/06/24 03:42:24;;;;;;;4.70;4.03;;;16.00;99.90;;;;;;5015261;28;20034;-81
2023/06/24 03:44:50;;;;;;;4.55;3.90;;;16.00;99.90;;;;;;5006997;28;20026;-81
2023/06/24 03:47:16;;;;;;;5.25;4.10;;;16.00;99.90;;;;;;4988370;28;20030;-87
2023/06/24 03:49:41;;;;;;;4.38;3.97;;;16.00;99.90;;;;;;5021263;28;20018;-83
2023/06/24 03:52:08;;;;;;;4.60;4.07;;;16.00;99.90;;;;;;5002110;28;20471;-81
2023/06/24 03:54:35;;;;;;;3.92;3.33;;;16.10;99.90;;;;;;4990165;28;20017;-81
2023/06/24 03:57:01;;;;;;;4.57;4.18;;;16.20;99.90;;;;;;5002884;28;20151;-86
2023/06/24 03:59:26;;;;;;;4.55;3.92;;;16.20;99.90;;;;;;5005572;28;20037;-86
2023/06/24 04:01:54;;;;;;;4.65;4.15;;;16.20;99.90;;;;;;5006120;28;20403;-82
2023/06/24 04:04:20;;;;;;;4.88;4.35;;;16.20;99.90;;;;;;5005225;28;20022;-84
2023/06/24 04:06:46;;;;;;;4.35;3.95;;;16.30;99.90;;;;;;5006717;28;20042;-87
2023/06/24 04:09:13;;;;;;;6.85;4.63;;;16.30;99.90;;;;;;5001525;28;20030;-82
2023/06/24 04:11:39;;;;;;;5.63;4.28;;;16.30;99.90;;;;;;5002854;28;20061;-81
2023/06/24 04:14:06;;;;;;;5.35;4.03;;;16.40;99.90;;;;;;5007198;28;20018;-88
2023/06/24 04:16:33;;;;;;;8.18;4.90;;;16.40;99.90;;;;;;5003045;28;20026;-85
2023/06/24 04:19:01;;;;;;;7.47;4.20;;;16.50;99.90;;;;;;5018062;28;20025;-85
2023/06/24 04:21:27;;;;;;;7.57;4.75;;;16.50;99.90;;;;;;4986201;28;20099;-86
2023/06/24 04:23:53;;;;;;;7.72;4.50;;;16.50;99.90;;;;;;5003350;28;20050;-82
2023/06/24 04:26:19;;;;;;;5.82;5.05;;;16.60;99.90;;;;;;4987645;28;20057;-84
2023/06/24 04:28:45;;;;;;;6.38;4.97;;;16.60;99.90;;;;;;5004123;28;20065;-85
2023/06/24 04:31:11;;;;;;;5.03;4.50;;;16.70;99.90;;;;;;5019436;28;20040;-86
2023/06/24 04:33:37;;;;;;;4.40;4.00;;;16.80;99.90;;;;;;5010539;28;20021;-84
2023/06/24 04:36:04;;;;;;;8.30;4.95;;;16.90;99.90;;;;;;5018270;28;20029;-81
2023/06/24 04:38:30;;;;;;;7.13;5.13;;;17.00;99.90;;;;;;5023432;28;20057;-80
2023/06/24 04:40:59;;;;;;;5.95;5.35;;;17.20;99.90;;;;;;4989528;28;20490;-79
2023/06/24 04:43:27;;;;;;;5.20;4.15;;;17.30;99.90;;;;;;5007270;28;20034;-78
2023/06/24 04:45:55;;;;;;;6.82;5.18;;;17.30;99.90;;;;;;4991340;28;20054;-81
2023/06/24 04:48:22;;;;;;;5.03;4.53;;;17.40;99.90;;;;;;5009443;28;20033;-80
2023/06/24 04:50:48;;;;;;;8.43;5.70;;;17.50;99.90;;;;;;4990772;28;20104;-79
2023/06/24 04:53:14;;;;;;;6.93;5.07;;;17.50;99.90;;;;;;5008602;28;20129;-80
2023/06/24 04:55:40;;;;;;;7.97;5.63;;;17.60;99.90;;;;;;5018877;28;20087;-80
2023/06/24 04:58:06;;;;;;;7.88;5.70;;;17.60;99.90;;;;;;5006511;28;20036;-80
2023/06/24 05:00:32;;;;;;;6.32;5.72;;;17.60;99.90;;;;;;4992538;28;20496;-80
2023/06/24 05:02:58;;;;;;;6.80;5.68;;;17.50;99.90;;;;;;5006242;28;20436;-80
2023/06/24 05:05:23;;;;;;;5.88;5.20;;;17.50;99.90;;;;;;5025420;28;20125;-80
2023/06/24 05:07:49;;;;;;;6.15;5.53;;;17.70;99.90;;;;;;5006289;28;20022;-80
2023/06/24 05:10:15;;;;;;;6.55;5.85;;;17.90;99.90;;;;;;5007753;28;20046;-80
2023/06/24 05:12:41;;;;;;;6.90;6.20;;;18.10;99.90;;;;;;5006360;28;20413;-80
2023/06/24 05:15:07;;;;;;;7.45;6.53;;;18.40;99.90;;;;;;5003975;28;20517;-79
2023/06/24 05:17:33;;;;;;;9.02;6.10;;;18.50;99.90;;;;;;5008543;28;20407;-82
2023/06/24 05:19:59;;;;;;;5.82;5.22;;;18.60;99.90;;;;;;5005106;28;20022;-82
2023/06/24 05:22:24;;;;;;;7.82;5.57;;;18.80;99.90;;;;;;5007263;28;20050;-86
2023/06/24 05:24:50;;;;;;;7.20;5.85;;;19.00;99.90;;;;;;5038337;28;20033;-80
2023/06/24 05:27:17;;;;;;;8.52;6.95;;;19.10;99.90;;;;;;5005073;28;20087;-81
2023/06/24 05:29:43;;;;;;;7.43;6.35;;;19.30;99.90;;;;;;5003282;28;20477;-81
2023/06/24 05:32:09;;;;;;;8.48;7.00;;;19.50;99.90;;;;;;5006702;28;20030;-82
2023/06/24 05:34:35;;;;;;;6.22;5.63;;;19.60;99.90;;;;;;5003614;28;20456;-80
2023/06/24 05:37:01;;;;;;;7.50;5.93;;;19.80;99.90;;;;;;4988075;28;20399;-82
2023/06/24 05:39:26;;;;;;;5.85;5.03;;;19.90;99.90;;;;;;5008171;28;20026;-81
2023/06/24 05:41:52;;;;;;;9.52;8.52;;;20.00;99.90;;;;;;5006249;28;20044;-83
2023/06/24 05:44:18;;;;;;;7.20;6.50;;;19.90;99.90;;;;;;5004007;28;20029;-81
2023/06/24 05:46:47;;;;;;;6.32;5.55;;;20.10;99.90;;;;;;5007244;28;20152;-81
2023/06/24 05:49:13;;;;;;;8.32;7.00;;;20.30;99.90;;;;;;5005127;28;20032;-83
2023/06/24 05:51:38;;;;;;;7.95;6.47;;;20.20;99.90;;;;;;5039045;28;20034;-82
2023/06/24 05:54:04;;;;;;;8.48;6.90;;;20.30;99.90;;;;;;5005825;28;20019;-84
2023/06/24 05:56:31;;;;;;;8.68;7.28;;;20.30;99.90;;;;;;5008039;28;20113;-83
2023/06/24 05:58:56;;;;;;;9.25;6.60;;;20.30;99.90;;;;;;4991819;28;20048;-83
2023/06/24 06:01:22;;;;;;;8.07;5.63;;;20.30;99.90;;;;;;5004895;28;20069;-82
2023/06/24 06:03:48;;;;;;;6.55;5.07;;;20.50;99.90;;;;;;5007775;28;20026;-83
2023/06/24 06:06:13;;;;;;;7.65;5.30;;;20.60;99.90;;;;;;4988305;28;20050;-83
2023/06/24 06:08:39;;;;;;;7.30;4.35;;;20.60;99.90;;;;;;5004751;28;20065;-82
2023/06/24 06:11:05;;;;;;;4.90;3.50;;;20.70;99.90;;;;;;5005248;28;20022;-82
2023/06/24 06:13:31;;;;;;;4.35;3.03;;;20.70;99.90;;;;;;5003961;28;20431;-83
2023/06/24 06:15:57;;;;;;;3.67;2.75;;;20.90;99.90;;;;;;5002873;28;20149;-82
2023/06/24 06:18:23;;;;;;;5.93;3.42;;;21.00;99.90;;;;;;5005977;28;20482;-82
2023/06/24 06:20:49;;;;;;;3.55;2.45;;;20.80;99.90;;;;;;5004465;28;20049;-82
2023/06/24 06:23:16;;;;;;;4.45;2.75;;;20.80;99.90;;;;;;5006615;28;20034;-82
2023/06/24 06:25:43;;;;;;;3.88;2.60;;;21.00;99.90;;;;;;5022119;28;20379;-83
2023/06/24 06:28:08;;;;;;;6.20;2.80;;;21.10;99.90;;;;;;5020019;28;20564;-80
2023/06/24 06:30:34;;;;;;;5.63;2.95;;;21.20;99.90;;;;;;4989014;28;20022;-82
2023/06/24 06:33:00;;;;;;;5.32;2.75;;;21.40;99.90;;;;;;5007850;28;20038;-83
2023/06/24 06:35:25;;;;;;;7.68;3.55;;;21.50;99.90;;;;;;5004759;28;20067;-83
2023/06/24 06:37:52;;;;;;;4.85;2.40;;;21.50;99.90;;;;;;5006308;28;20025;-82
2023/06/24 06:40:21;;;;;;;4.32;2.85;;;21.80;99.90;;;;;;5008428;28;20033;-82
2023/06/24 06:42:47;;;;;;;4.88;2.92;;;22.00;99.90;;;;;;5008608;28;20042;-83
2023/06/24 06:45:13;;;;;;;6.75;3.65;;;21.70;99.90;;;;;;4989602;28;20445;-84
2023/06/24 06:47:39;;;;;;;5.15;3.38;;;21.80;99.90;;;;;;4989159;28;20037;-83
2023/06/24 06:50:05;;;;;;;4.57;2.20;;;21.90;99.90;;;;;;5007584;28;20474;-83
2023/06/24 06:52:31;;;;;;;1.95;1.00;;;22.20;99.90;;;;;;5021409;28;20026;-84
2023/06/24 06:54:58;;;;;;;3.78;1.67;;;22.60;99.90;;;;;;4984343;28;20036;-82
2023/06/24 06:57:23;;;;;;;2.90;1.42;;;22.60;99.90;;;;;;4987338;28;20032;-84
2023/06/24 06:59:52;;;;;;;2.13;1.17;;;22.40;99.90;;;;;;4986838;28;20398;-84
2023/06/24 07:02:18;;;;;;;2.10;1.13;;;22.10;99.90;;;;;;5020765;28;20041;-84
2023/06/24 07:04:44;;;;;;;2.30;1.05;;;22.20;99.90;;;;;;5001550;28;20034;-84
2023/06/24 07:07:11;;;;;;;3.92;1.50;;;22.50;99.90;;;;;;5004410;28;20121;-85
2023/06/24 07:09:37;;;;;;;3.60;1.25;;;22.70;99.90;;;;;;5005666;28;20030;-84
2023/06/24 07:12:03;;;;;;;3.65;1.63;;;23.10;99.90;;;;;;4982022;28;20116;-83
2023/06/24 07:14:29;;;;;;;3.33;1.45;;;23.00;99.90;;;;;;5004107;28;20068;-85
2023/06/24 07:16:55;;;;;;;2.42;1.05;;;22.90;99.90;;;;;;4987932;28;20057;-86
2023/06/24 07:19:20;;;;;;;3.95;1.52;;;22.80;99.90;;;;;;5021014;28;20056;-85
2023/06/24 07:21:46;;;;;;;2.85;1.38;;;22.70;99.90;;;;;;4983486;28;20050;-86
2023/06/24 07:24:12;;;;;;;2.55;1.67;;;22.50;99.90;;;;;;5004741;28;20030;-86
2023/06/24 07:26:38;;;;;;;2.95;1.40;;;22.70;99.90;;;;;;4983679;28;20034;-85
2023/06/24 07:29:07;;;;;;;2.40;1.10;;;22.50;99.90;;;;;;4989435;28;20093;-83
2023/06/24 07:31:33;;;;;;;2.05;1.00;;;23.00;99.90;;;;;;4991154;28;20045;-84
2023/06/24 07:33:58;;;;;;;1.90;0.80;;;23.50;99.90;;;;;;4992422;28;20030;-85
2023/06/24 07:36:24;;;;;;;2.00;1.00;;;23.70;99.90;;;;;;5005435;28;20072;-85
2023/06/24 07:38:50;;;;;;;3.92;1.20;;;23.20;99.90;;;;;;5001955;28;20066;-84
2023/06/24 07:41:15;;;;;;;5.10;1.48;;;23.30;99.90;;;;;;5005257;28;20042;-84
2023/06/24 07:43:41;;;;;;;3.70;1.83;;;23.50;99.90;;;;;;5005714;28;20026;-85
2023/06/24 07:46:07;;;;;;;4.30;2.30;;;23.50;99.90;;;;;;5005540;28;20065;-85
2023/06/24 07:48:33;;;;;;;5.35;2.42;;;23.40;99.90;;;;;;4988180;28;20034;-85
2023/06/24 07:50:58;;;;;;;5.32;2.88;;;23.40;99.90;;;;;;5005434;28;20026;-87
2023/06/24 07:53:24;;;;;;;4.47;3.33;;;23.30;99.90;;;;;;5019561;28;20088;-88
2023/06/24 07:55:50;;;;;;;5.10;2.83;;;23.40;99.90;;;;;;4990864;28;20070;-87
2023/06/24 07:58:16;;;;;;;7.13;2.40;;;23.40;99.90;;;;;;5007750;28;20034;-86
2023/06/24 08:00:42;;;;;;;5.00;2.45;;;23.70;99.90;;;;;;5000113;28;20061;-85
2023/06/24 08:03:08;;;;;;;3.92;1.98;;;24.10;99.90;;;;;;4980550;28;20026;-86
2023/06/24 08:05:34;;;;;;;2.10;1.27;;;24.20;99.90;;;;;;4987995;28;20026;-88
2023/06/24 08:07:59;;;;;;;3.75;1.90;;;24.60;99.90;;;;;;4986500;28;20483;-87
2023/06/24 08:10:25;;;;;;;3.35;1.30;;;24.00;99.90;;;;;;5007807;28;20049;-86
2023/06/24 08:12:51;;;;;;;2.90;1.90;;;24.60;99.90;;;;;;5006807;28;20474;-85
2023/06/24 08:15:17;;;;;;;2.20;1.00;;;24.40;99.90;;;;;;4989230;28;20505;-85
2023/06/24 08:17:42;;;;;;;2.00;0.70;;;25.10;99.90;;;;;;4988024;28;20022;-86
2023/06/24 08:20:09;;;;;;;2.05;0.68;;;25.40;99.90;;;;;;4988703;28;20112;-85
2023/06/24 08:22:34;;;;;;;2.60;1.02;;;26.00;99.90;;;;;;4993462;28;20049;-86
2023/06/24 08:25:00;;;;;;;2.10;0.80;;;25.70;99.90;;;;;;5009913;28;20023;-87
2023/06/24 08:27:26;;;;;;;2.15;0.80;;;25.90;99.90;;;;;;4991766;28;20030;-90
2023/06/24 08:29:52;;;;;;;2.28;0.75;;;25.40;99.90;;;;;;5010444;28;20026;-87
2023/06/24 08:32:20;;;;;;;2.35;0.60;;;25.10;99.90;;;;;;5009916;28;20398;-86
2023/06/24 08:34:46;;;;;;;1.65;0.70;;;25.80;99.90;;;;;;4989496;28;20022;-88
2023/06/24 08:37:12;;;;;;;2.08;0.68;;;26.00;99.90;;;;;;5012822;28;20034;-89
2023/06/24 08:39:38;;;;;;;2.15;0.50;;;26.10;99.90;;;;;;4994608;28;20034;-88
2023/06/24 08:42:04;;;;;;;1.42;0.50;;;26.40;99.90;;;;;;4995371;28;20041;-89
2023/06/24 08:44:30;;;;;;;2.65;0.77;;;26.70;99.90;;;;;;5021882;28;20053;-89
2023/06/24 08:46:56;;;;;;;2.25;0.57;;;26.40;99.90;;;;;;4989745;28;20072;-87
2023/06/24 08:49:21;;;;;;;2.35;1.00;;;26.00;99.90;;;;;;4993098;28;20180;-85
2023/06/24 08:51:52;;;;;;;2.33;1.20;;;25.60;99.90;;;;;;5025079;28;20026;-88
2023/06/24 08:54:19;;;;;;;2.13;0.70;;;25.00;99.90;;;;;;4989307;28;20038;-87
2023/06/24 08:56:45;;;;;;;2.55;0.60;;;26.00;99.90;;;;;;4992694;28;20034;-88
2023/06/24 08:59:11;;;;;;;1.50;0.50;;;26.50;99.90;;;;;;5023674;28;20033;-89
2023/06/24 09:01:37;;;;;;;1.42;0.60;;;27.00;99.90;;;;;;5011018;28;20084;-86
2023/06/24 09:04:03;;;;;;;2.00;0.77;;;27.00;99.90;;;;;;4992392;28;20041;-90
2023/06/24 09:06:33;;;;;;;1.17;0.50;;;27.10;99.90;;;;;;4993145;28;20040;-88
2023/06/24 09:08:59;;;;;;;;;;;27.50;99.90;;;;;;4992233;28;20049;-90
2023/06/24 09:11:27;;;;;;;2.35;0.60;;;26.70;99.90;;;;;;5025209;28;19910;-85
2023/06/24 09:13:59;;;;;;;2.05;0.65;;;26.50;99.90;;;;;;5039968;28;20133;-86
2023/06/24 09:16:26;;;;;;;3.30;1.00;;;26.80;99.90;;;;;;5021525;28;20161;-86
2023/06/24 09:18:53;;;;;;;2.15;0.95;;;26.20;99.90;;;;;;4987029;28;20025;-86
2023/06/24 09:21:27;;;;;;;1.17;0.45;;;25.90;99.90;;;;;;5023510;28;20053;-88
2023/06/24 09:23:56;;;;;;;1.35;0.52;;;27.00;99.90;;;;;;4989181;28;20032;-84
2023/06/24 09:26:26;;;;;;;1.30;0.52;;;26.90;99.90;;;;;;5004479;28;20025;-83
2023/06/24 09:28:52;;;;;;;2.45;0.50;;;26.50;99.90;;;;;;4986147;28;20516;-85
2023/06/24 09:31:18;;;;;;;1.20;0.40;;;26.90;99.90;;;;;;4984800;28;20124;-84
2023/06/24 09:33:44;;;;;;;1.20;0.50;;;28.00;99.90;;;;;;5000838;28;20498;-83
2023/06/24 09:36:14;;;;;;;1.88;0.80;;;28.20;99.90;;;;;;5005733;28;20034;-87
2023/06/24 09:38:42;;;;;;;1.40;0.60;;;26.60;99.50;;;;;;5007064;28;20057;-84
2023/06/24 09:41:11;;;;;;;2.92;0.75;;;26.20;99.90;;;;;;5004985;28;20038;-85
2023/06/24 09:43:39;;;;;;;2.25;0.60;;;26.50;99.90;;;;;;5023502;28;20026;-84
2023/06/24 09:46:06;;;;;;;1.80;0.43;;;26.50;99.90;;;;;;4984964;28;20042;-83
2023/06/24 09:48:35;;;;;;;1.30;0.50;;;27.70;99.90;;;;;;5019536;28;20093;-81
2023/06/24 09:51:03;;;;;;;2.55;0.40;;;28.10;99.90;;;;;;5006165;28;20026;-83
2023/06/24 09:53:34;;;;;;;1.38;0.50;;;28.60;99.90;;;;;;4985914;28;20365;-83
2023/06/24 09:56:02;;;;;;;1.33;0.40;;;28.80;99.90;;;;;;4985162;28;20067;-84
2023/06/24 09:58:35;;;;;;;1.65;0.68;;;28.00;99.90;;;;;;4991380;28;20068;-85
2023/06/24 10:01:04;;;;;;;1.30;0.50;;;28.00;99.90;;;;;;5004405;28;20030;-84
2023/06/24 10:03:32;;;;;;;1.75;0.50;;;28.30;99.90;;;;;;5005576;28;20026;-83
2023/06/24 10:05:59;;;;;;;1.08;0.40;;;28.80;99.90;;;;;;5038249;28;20382;-84
2023/06/24 10:08:27;;;;;;;1.00;0.47;;;29.20;99.90;;;;;;5006980;28;20037;-86
2023/06/24 10:10:53;;;;;;;1.25;0.50;;;28.90;99.90;;;;;;4988217;28;20482;-83
2023/06/24 10:13:19;;;;;;;1.15;0.50;;;28.80;99.90;;;;;;5040714;28;20038;-84
2023/06/24 10:15:45;;;;;;;1.20;0.40;;;28.80;99.90;;;;;;5003474;28;20034;-84
2023/06/24 10:18:37;;;;;;;1.33;0.40;;;28.80;99.90;;;;;;5004688;28;20040;-84
2023/06/24 10:21:08;;;;;;;2.58;0.32;;;28.40;99.90;;;;;;5005092;28;20038;-84
2023/06/24 10:23:42;;;;;;;1.60;0.50;;;28.70;99.90;;;;;;4989910;28;20068;-84
2023/06/24 10:26:10;;;;;;;1.15;0.40;;;28.10;99.90;;;;;;5008237;28;20109;-85
2023/06/24 10:29:06;;;;;;;1.40;0.50;;;28.20;99.90;;;;;;5017748;28;20049;-83
2023/06/24 10:31:41;;;;;;;1.30;0.52;;;28.30;99.90;;;;;;4975923;28;20603;-84
2023/06/24 10:34:19;;;;;;;1.05;0.45;;;28.70;99.90;;;;;;5018943;28;20022;-85
2023/06/24 10:37:00;;;;;;;2.47;0.77;;;28.50;99.90;;;;;;5002531;28;20030;-85
2023/06/24 10:39:55;;;;;;;3.30;0.50;;;28.70;99.40;;;;;;4999737;28;20101;-85
2023/06/24 10:42:43;;;;;;;2.10;0.50;;;28.80;99.90;;;;;;4985430;28;20165;-85
2023/06/24 10:45:08;;;;;;;1.70;0.50;;;28.40;99.90;;;;;;5004473;28;20030;-85
2023/06/24 10:47:38;;;;;;;1.95;0.90;;;28.90;99.90;;;;;;4980946;28;20061;-85
2023/06/24 10:50:06;;;;;;;2.38;0.60;;;28.00;99.70;;;;;;4981479;28;20037;-85
2023/06/24 10:52:32;;;;;;;1.88;0.93;;;28.50;99.90;;;;;;4982713;28;20084;-85
2023/06/24 10:54:58;;;;;;;2.70;0.80;;;28.30;99.90;;;;;;4985551;28;20041;-85
2023/06/24 10:57:28;;;;;;;2.42;0.50;;;27.90;99.90;;;;;;4985710;28;20542;-86
2023/06/24 10:59:56;;;;;;;2.45;0.70;;;28.30;99.90;;;;;;5014422;28;20076;-86
2023/06/24 11:02:23;;;;;;;1.15;0.50;;;28.20;99.90;;;;;;5004579;28;20045;-86
2023/06/24 11:04:51;;;;;;;1.25;0.47;;;28.70;99.70;;;;;;5005885;28;20022;-86
2023/06/24 11:07:19;;;;;;;2.47;0.60;;;29.00;99.90;;;;;;5004706;28;20109;-85
2023/06/24 11:09:52;;;;;;;1.70;0.80;;;29.00;99.90;;;;;;5000773;28;20033;-85
2023/06/24 11:12:23;;;;;;;3.50;0.90;;;29.00;99.90;;;;;;5003633;28;20108;-85
2023/06/24 11:14:48;;;;;;;1.67;0.70;;;29.20;99.70;;;;;;5034261;28;20026;-86
2023/06/24 11:17:14;;;;;;;2.63;1.35;;;28.40;99.00;;;;;;5005807;28;20061;-86
2023/06/24 11:19:40;;;;;;;2.80;0.73;;;27.70;99.90;;;;;;5035326;28;20045;-85
2023/06/24 11:22:07;;;;;;;1.25;0.50;;;28.20;99.90;;;;;;4987024;28;20038;-85
2023/06/24 11:24:33;;;;;;;1.42;0.60;;;29.30;99.90;;;;;;4984340;28;20509;-87
2023/06/24 11:26:59;;;;;;;2.15;0.70;;;29.20;99.90;;;;;;5037816;28;20168;-87
2023/06/24 11:29:30;;;;;;;1.80;0.80;;;29.30;99.30;;;;;;5002563;28;20113;-86
2023/06/24 11:31:56;;;;;;;1.88;0.63;;;28.60;99.90;;;;;;5004987;28;20058;-86
2023/06/24 11:34:22;;;;;;;1.70;0.68;;;29.00;99.90;;;;;;4982026;28;20137;-86
2023/06/24 11:36:48;;;;;;;1.85;0.60;;;29.60;99.90;;;;;;5004852;28;20037;-86
2023/06/24 11:39:40;;;;;;;2.60;0.60;;;29.30;99.40;;;;;;5002150;28;20033;-85
2023/06/24 11:42:08;;;;;;;2.25;0.60;;;29.30;99.90;;;;;;5000815;28;20034;-86
2023/06/24 11:44:34;;;;;;;1.60;0.60;;;28.80;99.90;;;;;;5004835;28;20429;-86
2023/06/24 11:47:07;;;;;;;2.50;0.80;;;28.80;99.90;;;;;;4981575;28;20026;-86
2023/06/24 11:49:57;;;;;;;1.67;0.90;;;28.40;99.90;;;;;;4981617;28;20536;-84
2023/06/24 11:52:35;;;;;;;9.00;2.35;;;28.50;99.90;;;;;;5000006;28;20109;-85
2023/06/24 11:55:02;;;;;;;3.38;0.93;;;28.20;99.90;;;;;;4987162;28;20029;-83
2023/06/24 11:57:54;;;;;;;2.33;0.63;;;28.40;99.60;;;;;;5000240;28;20594;-84
2023/06/24 12:00:25;;;;;;;5.15;1.00;;;28.90;99.90;;;;;;5003793;28;20026;-86
2023/06/24 12:02:53;;;;;;;2.67;0.63;;;29.20;99.80;;;;;;5004994;28;20072;-86
2023/06/24 12:05:28;;;;;;;2.20;0.80;;;28.40;98.50;;;;;;5004615;28;20441;-85
2023/06/24 12:08:00;;;;;;;9.75;2.47;;;27.70;99.90;;;;;;4981543;28;20026;-85
2023/06/24 12:10:28;;;;;;;3.53;0.82;;;28.00;99.90;;;;;;5018137;28;20037;-84
2023/06/24 12:12:54;;;;;;;2.78;1.10;;;27.50;99.80;;;;;;5001478;28;20095;-85
2023/06/24 12:15:20;;;;;;;1.05;0.60;;;27.40;99.30;;;;;;4984838;28;20030;-84
2023/06/24 12:17:45;;;;;;;1.25;0.57;;;27.90;99.90;;;;;;4982186;28;20036;-84
2023/06/24 12:20:13;;;;;;;2.22;0.70;;;28.50;99.90;;;;;;4983137;28;20032;-83
2023/06/24 12:22:39;;;;;;;2.20;0.90;;;28.20;99.90;;;;;;4982193;28;20029;-84
2023/06/24 12:25:05;;;;;;;1.98;0.77;;;28.20;99.70;;;;;;5003294;28;20081;-85
2023/06/24 12:27:31;;;;;;;1.92;0.57;;;28.50;99.90;;;;;;4999299;28;20486;-82
2023/06/24 12:29:57;;;;;;;1.90;0.57;;;28.60;99.90;;;;;;4984736;28;20033;-83
2023/06/24 12:32:22;;;;;;;1.40;0.50;;;29.30;99.90;;;;;;4986717;28;20045;-83
2023/06/24 12:34:48;;;;;;;2.47;0.60;;;29.40;98.70;;;;;;4982758;28;20032;-83
2023/06/24 12:37:14;;;;;;;1.00;0.50;;;29.50;99.90;;;;;;5000110;28;20030;-84
2023/06/24 12:39:39;;;;;;;1.30;0.50;;;29.50;99.90;;;;;;4979982;28;20085;-84
2023/06/24 12:42:06;;;;;;;1.33;0.60;;;29.90;98.90;;;;;;4978579;28;20143;-84
2023/06/24 12:44:31;;;;;;;1.10;0.50;;;29.80;99.90;;;;;;5003526;28;20389;-84
2023/06/24 12:46:57;;;;;;;0.80;0.40;;;30.10;99.60;;;;;;4980416;28;20116;-83
2023/06/24 12:49:23;;;;;;;1.52;0.77;;;30.20;99.90;;;;;;5031183;28;20160;-83
2023/06/24 12:51:48;;;;;;;1.90;0.70;;;29.40;98.50;;;;;;5001856;28;20045;-84